Terminal Aerodrome Forecast
Issued by NWS

Home | Current Version | Previous Version | Graphics & Text | Print | Product List | Glossary On
Versions: 1 2 3 4 5 6 7 8 9 10 11 12 13 14 15 16 17 18 19 20 21 22 23
886
FTUS43 KFGF 231140
TAFBJI
TAF
KBJI 231140Z 2312/2412 15011KT P6SM BKN200
     FM232100 16008KT P6SM -RA OVC025
     FM240100 15004KT P6SM OVC020
     FM240500 00000KT P6SM OVC015
     FM240800 VRB03KT P6SM OVC010
     FM241100 36007KT P6SM BKN015=

USA.gov is the U.S. government's official web portal to all federal, state and local government web resources and services.